createdAt,value
2022-08-01T00:00:09.311Z,57.60
2022-08-01T00:02:39.539Z,57.70
2022-08-01T00:05:07.785Z,57.80
2022-08-01T00:07:35.626Z,57.90
2022-08-01T00:10:06.869Z,57.90
2022-08-01T00:12:33.665Z,57.90
2022-08-01T00:15:00.711Z,57.90
2022-08-01T00:17:27.446Z,58.00
2022-08-01T00:19:54.168Z,57.90
2022-08-01T00:22:20.965Z,58.10
2022-08-01T00:24:47.805Z,58.20
2022-08-01T00:27:14.633Z,58.40
2022-08-01T00:30:12.477Z,58.30
2022-08-01T00:32:30.644Z,58.40
2022-08-01T00:34:57.424Z,58.50
2022-08-01T00:37:24.207Z,58.70
2022-08-01T00:39:50.889Z,58.80
2022-08-01T00:42:17.628Z,58.90
2022-08-01T00:44:44.459Z,59.00
2022-08-01T00:47:11.217Z,59.30
2022-08-01T00:49:38.061Z,59.40
2022-08-01T00:52:07.019Z,59.60
2022-08-01T00:54:34.211Z,59.50
2022-08-01T00:57:01.175Z,59.80
2022-08-01T00:59:28.337Z,59.70
2022-08-01T01:01:55.388Z,59.90
2022-08-01T01:04:23.132Z,59.80
2022-08-01T01:06:58.523Z,60.10
2022-08-01T01:09:25.416Z,60.00
2022-08-01T01:12:04.414Z,60.30
2022-08-01T01:14:39.624Z,60.40
2022-08-01T01:17:10.091Z,60.50
2022-08-01T01:19:45.182Z,60.80
2022-08-01T01:22:49.449Z,61.20
2022-08-01T01:25:25.488Z,61.30
2022-08-01T01:28:03.926Z,61.50
2022-08-01T01:30:33.869Z,61.90
2022-08-01T01:33:06.626Z,62.20
2022-08-01T01:35:37.581Z,62.40
2022-08-01T01:38:20.768Z,62.50
2022-08-01T01:40:49.859Z,62.70
2022-08-01T01:43:18.859Z,62.80
2022-08-01T01:45:48.015Z,62.90
2022-08-01T01:48:17.798Z,63.30
2022-08-01T01:50:47.195Z,63.40
2022-08-01T01:53:16.214Z,63.50
2022-08-01T01:55:49.422Z,63.60
2022-08-01T01:58:18.512Z,63.70
2022-08-01T02:00:47.787Z,63.70
2022-08-01T02:03:15.758Z,64.00
2022-08-01T02:05:43.482Z,64.30
2022-08-01T02:08:12.578Z,64.40
2022-08-01T02:10:41.585Z,64.80
2022-08-01T02:13:09.701Z,64.80
2022-08-01T02:15:59.207Z,65.00
2022-08-01T02:18:27.305Z,65.10
2022-08-01T02:20:56.670Z,65.00
2022-08-01T02:23:28.132Z,65.20
2022-08-01T02:26:09.402Z,65.50
2022-08-01T02:28:54.015Z,65.60
2022-08-01T02:31:23.119Z,65.70
2022-08-01T02:34:06.515Z,66.00
2022-08-01T02:36:36.378Z,66.00
2022-08-01T02:39:08.977Z,66.20
2022-08-01T02:41:41.800Z,66.30
2022-08-01T02:44:11.749Z,66.50
2022-08-01T02:46:44.403Z,66.80
2022-08-01T02:49:13.676Z,67.10
2022-08-01T02:51:41.905Z,67.10
2022-08-01T02:54:09.668Z,67.30
2022-08-01T02:56:37.539Z,67.30
2022-08-01T02:59:13.729Z,67.50
2022-08-01T03:01:44.068Z,67.80
2022-08-01T03:04:11.757Z,68.00
2022-08-01T03:06:40.074Z,68.20
2022-08-01T03:09:10.846Z,68.30
2022-08-01T03:11:40.778Z,68.50
2022-08-01T03:14:10.093Z,68.80
2022-08-01T03:16:39.688Z,68.80
2022-08-01T03:19:09.511Z,69.90
2022-08-01T03:21:38.174Z,69.10
2022-08-01T03:24:06.969Z,69.20
2022-08-01T03:26:37.105Z,69.50
2022-08-01T03:29:07.671Z,69.30
2022-08-01T03:31:39.258Z,69.50
2022-08-01T03:34:07.154Z,70.50
2022-08-01T03:36:35.623Z,70.00
2022-08-01T03:39:06.080Z,70.00
2022-08-01T03:41:39.001Z,70.30
2022-08-01T03:44:11.161Z,70.50
2022-08-01T03:46:44.338Z,70.60
2022-08-01T03:49:22.466Z,70.80
2022-08-01T03:51:51.874Z,71.00
2022-08-01T03:54:24.494Z,71.20
2022-08-01T03:56:52.765Z,71.30
2022-08-01T03:59:21.017Z,71.40
2022-08-01T04:01:48.713Z,71.60
2022-08-01T04:04:15.810Z,71.80
2022-08-01T04:06:44.845Z,71.80
2022-08-01T04:09:13.747Z,72.10
2022-08-01T04:11:41.844Z,71.80
2022-08-01T04:14:09.348Z,72.30
2022-08-01T04:16:36.497Z,72.20
2022-08-01T04:19:03.502Z,72.00
2022-08-01T04:21:33.411Z,71.90
2022-08-01T04:24:06.027Z,72.30
2022-08-01T04:26:35.688Z,72.20
2022-08-01T04:29:05.875Z,72.40
2022-08-01T04:31:33.688Z,72.60
2022-08-01T04:34:02.740Z,72.90
2022-08-01T04:36:30.925Z,73.00
2022-08-01T04:39:02.277Z,73.50
2022-08-01T04:41:30.729Z,73.50
2022-08-01T04:44:00.250Z,73.70
2022-08-01T04:46:29.377Z,73.80
2022-08-01T04:48:57.167Z,74.10
2022-08-01T04:51:24.086Z,74.40
2022-08-01T04:53:52.147Z,74.60
2022-08-01T04:56:22.114Z,74.70
2022-08-01T04:58:49.146Z,74.90
2022-08-01T05:01:16.629Z,74.40
2022-08-01T05:03:43.496Z,74.20
2022-08-01T05:06:10.332Z,74.20
2022-08-01T05:08:37.241Z,74.20
2022-08-01T05:11:04.402Z,74.10
2022-08-01T05:13:31.489Z,74.30
2022-08-01T05:15:58.279Z,74.20
2022-08-01T05:18:27.962Z,74.30
2022-08-01T05:20:55.632Z,74.60
2022-08-01T05:23:42.579Z,74.80
2022-08-01T05:26:09.422Z,74.80
2022-08-01T05:28:36.324Z,75.30
2022-08-01T05:31:04.290Z,75.60
2022-08-01T05:33:31.045Z,75.60
2022-08-01T05:35:57.787Z,75.60
2022-08-01T05:38:24.506Z,76.30
2022-08-01T05:40:51.262Z,76.00
2022-08-01T05:43:18.020Z,76.40
2022-08-01T05:45:45.532Z,76.10
2022-08-01T05:48:12.415Z,76.30
2022-08-01T05:50:39.194Z,76.20
2022-08-01T05:53:05.897Z,76.30
2022-08-01T05:55:32.774Z,76.20
2022-08-01T05:57:59.689Z,76.50
2022-08-01T06:00:26.796Z,76.90
2022-08-01T06:02:53.984Z,76.70
2022-08-01T06:05:20.968Z,77.10
2022-08-01T06:07:47.903Z,77.90
2022-08-01T06:10:14.732Z,78.20
2022-08-01T06:12:41.677Z,78.10
2022-08-01T06:15:08.978Z,78.00
2022-08-01T06:17:35.894Z,77.80
2022-08-01T06:20:02.828Z,77.60
2022-08-01T06:22:29.613Z,77.30
2022-08-01T06:24:57.707Z,78.90
2022-08-01T06:27:25.906Z,78.20
2022-08-01T06:29:54.551Z,79.10
2022-08-01T06:32:27.288Z,78.70
2022-08-01T06:34:55.763Z,79.20
2022-08-01T06:37:23.328Z,78.60
2022-08-01T06:39:50.964Z,77.70
2022-08-01T06:42:18.566Z,78.60
2022-08-01T06:44:45.910Z,79.50
2022-08-01T06:47:12.785Z,79.20
2022-08-01T06:49:39.635Z,77.40
2022-08-01T06:52:06.691Z,77.60
2022-08-01T06:54:33.711Z,77.40
2022-08-01T06:57:00.478Z,77.40
2022-08-01T06:59:27.259Z,77.10
2022-08-01T07:01:54.163Z,77.10
2022-08-01T07:04:20.911Z,76.40
2022-08-01T07:06:47.688Z,77.20
2022-08-01T07:09:14.870Z,77.50
2022-08-01T07:11:42.095Z,76.40
2022-08-01T07:14:09.167Z,76.50
2022-08-01T07:16:36.179Z,76.50
2022-08-01T07:19:03.368Z,76.20
2022-08-01T07:21:40.207Z,76.20
2022-08-01T07:24:13.946Z,76.00
2022-08-01T07:26:53.692Z,75.80
2022-08-01T07:29:23.117Z,76.00
2022-08-01T07:31:49.939Z,75.60
2022-08-01T07:34:16.724Z,75.60
2022-08-01T07:36:43.743Z,75.90
2022-08-01T07:39:10.553Z,75.60
2022-08-01T07:41:53.083Z,75.70
2022-08-01T07:44:24.299Z,75.50
2022-08-01T07:46:55.064Z,76.30
2022-08-01T07:49:22.802Z,76.20
2022-08-01T07:52:03.407Z,75.80
2022-08-01T07:54:33.396Z,75.40
2022-08-01T07:57:02.073Z,75.40
2022-08-01T07:59:28.863Z,75.50
2022-08-01T08:01:55.766Z,75.60
2022-08-01T08:04:22.904Z,76.20
2022-08-01T08:06:50.195Z,75.30
2022-08-01T08:09:17.296Z,75.20
2022-08-01T08:11:48.441Z,75.00
2022-08-01T08:14:16.828Z,74.70
2022-08-01T08:16:44.779Z,74.70
2022-08-01T08:19:12.486Z,74.80
2022-08-01T08:21:40.033Z,75.00
2022-08-01T08:24:26.255Z,75.00
2022-08-01T08:26:59.718Z,74.80
2022-08-01T08:29:28.016Z,75.10
2022-08-01T08:31:58.651Z,75.40
2022-08-01T08:34:26.830Z,75.20
2022-08-01T08:36:54.404Z,75.00
2022-08-01T08:39:21.365Z,74.70
2022-08-01T08:41:49.947Z,74.30
2022-08-01T08:44:18.063Z,74.00
2022-08-01T08:46:50.117Z,74.10
2022-08-01T08:49:20.688Z,75.20
2022-08-01T08:51:50.660Z,74.50
2022-08-01T08:54:20.637Z,74.00
2022-08-01T08:56:48.148Z,73.90
2022-08-01T08:59:15.230Z,73.70
2022-08-01T09:01:43.333Z,75.50
2022-08-01T09:04:10.995Z,75.10
2022-08-01T09:06:38.454Z,76.60
2022-08-01T09:09:06.459Z,74.70
2022-08-01T09:11:34.261Z,74.50
2022-08-01T09:14:06.852Z,74.50
2022-08-01T09:16:35.660Z,74.70
2022-08-01T09:19:39.731Z,74.00
2022-08-01T09:22:09.517Z,74.20
2022-08-01T09:24:37.386Z,73.80
2022-08-01T09:27:26.426Z,74.20
2022-08-01T09:30:00.575Z,74.30
2022-08-01T09:32:35.881Z,74.00
2022-08-01T09:35:30.925Z,74.20
2022-08-01T09:38:15.822Z,73.60
2022-08-01T09:40:49.404Z,73.00
2022-08-01T09:43:16.484Z,72.90
2022-08-01T09:45:45.698Z,72.70
2022-08-01T09:48:18.688Z,72.90
2022-08-01T09:50:47.685Z,72.30
2022-08-01T09:53:24.462Z,71.80
2022-08-01T09:56:12.899Z,72.00
2022-08-01T09:59:00.589Z,73.00
2022-08-01T10:01:36.017Z,72.40
2022-08-01T10:04:26.595Z,72.10
2022-08-01T10:07:06.022Z,72.10
2022-08-01T10:09:40.276Z,71.40
2022-08-01T10:12:09.164Z,70.60
2022-08-01T10:14:46.336Z,70.20
2022-08-01T10:17:18.312Z,70.70
2022-08-01T10:19:47.719Z,70.80
2022-08-01T10:22:17.653Z,70.60
2022-08-01T10:24:47.151Z,70.10
2022-08-01T10:27:17.265Z,69.80
2022-08-01T10:30:05.505Z,69.30
2022-08-01T10:32:39.656Z,70.10
2022-08-01T10:35:14.855Z,69.40
2022-08-01T10:37:52.253Z,69.60
2022-08-01T10:40:35.597Z,68.80
2022-08-01T10:43:03.644Z,68.80
2022-08-01T10:45:31.664Z,68.40
2022-08-01T10:48:23.454Z,68.70
2022-08-01T10:50:55.119Z,67.90
2022-08-01T10:53:31.131Z,67.70
2022-08-01T10:56:13.047Z,67.10
2022-08-01T10:58:45.275Z,66.20
2022-08-01T11:01:18.215Z,66.30
2022-08-01T11:04:01.060Z,65.80
2022-08-01T11:06:34.289Z,66.50
2022-08-01T11:09:16.222Z,66.60
2022-08-01T11:12:08.201Z,65.90
2022-08-01T11:14:59.487Z,65.10
2022-08-01T11:17:45.257Z,65.20
2022-08-01T11:20:17.609Z,65.50
2022-08-01T11:23:04.678Z,64.00
2022-08-01T11:26:03.897Z,63.40
2022-08-01T11:28:32.322Z,62.90
2022-08-01T11:31:13.768Z,62.20
2022-08-01T11:33:45.992Z,62.50
2022-08-01T11:36:42.582Z,61.50
2022-08-01T11:39:13.273Z,61.20
2022-08-01T11:41:42.101Z,60.10
2022-08-01T11:44:49.128Z,60.00
2022-08-01T11:47:16.867Z,59.70
2022-08-01T11:49:50.438Z,59.60
2022-08-01T11:52:32.746Z,59.50
2022-08-01T11:55:11.325Z,59.50
2022-08-01T11:57:39.318Z,59.00
2022-08-01T12:00:16.894Z,58.60
2022-08-01T12:02:46.850Z,58.50
2022-08-01T12:05:17.718Z,58.90
2022-08-01T12:07:47.283Z,58.90
2022-08-01T12:10:16.271Z,58.80
2022-08-01T12:12:52.383Z,58.90
2022-08-01T12:15:21.159Z,58.50
2022-08-01T12:17:58.224Z,58.80
2022-08-01T12:20:34.618Z,59.30
2022-08-01T12:23:04.137Z,58.70
2022-08-01T12:25:31.017Z,58.20
2022-08-01T12:28:05.009Z,57.30
2022-08-01T12:30:36.205Z,57.70
2022-08-01T12:33:07.974Z,58.00
2022-08-01T12:35:37.435Z,57.60
2022-08-01T12:38:15.169Z,57.70
2022-08-01T12:40:45.538Z,58.10
2022-08-01T12:43:27.327Z,58.20
2022-08-01T12:45:59.301Z,57.50
2022-08-01T12:48:26.889Z,57.70
2022-08-01T12:50:56.882Z,56.60
2022-08-01T12:53:24.051Z,56.50
2022-08-01T12:55:58.648Z,56.10
2022-08-01T12:58:33.496Z,56.50
2022-08-01T13:01:09.211Z,56.90
2022-08-01T13:03:36.374Z,56.00
2022-08-01T13:06:12.012Z,55.40
2022-08-01T13:08:39.593Z,55.40
2022-08-01T13:11:18.204Z,55.90
2022-08-01T13:13:51.052Z,56.30
2022-08-01T13:16:30.713Z,56.50
2022-08-01T13:19:06.858Z,56.50
2022-08-01T13:21:53.010Z,57.00
2022-08-01T13:24:39.144Z,56.70
2022-08-01T13:27:06.394Z,56.90
2022-08-01T13:29:39.035Z,56.30
2022-08-01T13:32:27.660Z,56.30
2022-08-01T13:35:03.662Z,55.30
2022-08-01T13:37:30.364Z,55.40
2022-08-01T13:39:59.212Z,55.50
2022-08-01T13:42:26.159Z,54.80
2022-08-01T13:44:52.973Z,54.60
2022-08-01T13:47:19.711Z,54.80
2022-08-01T13:50:01.693Z,55.00
2022-08-01T13:52:29.438Z,55.50
2022-08-01T13:54:56.289Z,55.90
2022-08-01T13:57:23.216Z,57.00
2022-08-01T13:59:50.119Z,55.80
2022-08-01T14:02:16.934Z,55.70
2022-08-01T14:04:43.733Z,55.80
2022-08-01T14:07:14.396Z,55.50
2022-08-01T14:10:04.550Z,56.20
2022-08-01T14:12:29.973Z,56.00
2022-08-01T14:14:57.421Z,55.60
2022-08-01T14:17:24.454Z,55.70
2022-08-01T14:19:51.380Z,55.30
2022-08-01T14:22:18.147Z,54.90
2022-08-01T14:24:44.920Z,54.70
2022-08-01T14:27:11.818Z,54.30
2022-08-01T14:30:03.028Z,54.40
2022-08-01T14:32:28.509Z,54.70
2022-08-01T14:34:57.133Z,55.00
2022-08-01T14:37:29.138Z,54.80
2022-08-01T14:39:58.809Z,54.70
2022-08-01T14:42:26.746Z,54.20
2022-08-01T14:44:53.551Z,54.20
2022-08-01T14:47:21.615Z,54.20
2022-08-01T14:49:50.190Z,54.10
2022-08-01T14:52:17.466Z,53.90
2022-08-01T14:54:44.305Z,53.50
2022-08-01T14:57:13.084Z,54.00
2022-08-01T14:59:40.099Z,53.80
2022-08-01T15:02:07.200Z,53.90
2022-08-01T15:04:34.069Z,53.60
2022-08-01T15:07:00.987Z,53.30
2022-08-01T15:09:27.801Z,53.70
2022-08-01T15:11:54.511Z,52.90
2022-08-01T15:14:39.919Z,53.50
2022-08-01T15:17:08.695Z,53.90
2022-08-01T15:19:38.994Z,54.20
2022-08-01T15:22:08.885Z,54.70
2022-08-01T15:24:35.948Z,55.10
2022-08-01T15:27:03.179Z,54.40
2022-08-01T15:29:30.052Z,54.70
2022-08-01T15:31:56.764Z,54.70
2022-08-01T15:34:24.118Z,54.40
2022-08-01T15:36:51.070Z,54.20
2022-08-01T15:39:18.043Z,54.50
2022-08-01T15:41:45.017Z,54.20
2022-08-01T15:44:11.737Z,54.60
2022-08-01T15:46:38.458Z,54.10
2022-08-01T15:49:06.256Z,54.20
2022-08-01T15:51:33.579Z,53.90
2022-08-01T15:54:03.846Z,54.00
2022-08-01T15:56:31.099Z,53.90
2022-08-01T15:58:58.526Z,54.40
2022-08-01T16:01:27.019Z,54.20
2022-08-01T16:03:55.229Z,54.40
2022-08-01T16:06:22.642Z,54.10
2022-08-01T16:08:49.829Z,54.40
2022-08-01T16:11:17.725Z,54.70
2022-08-01T16:13:44.557Z,54.80
2022-08-01T16:16:12.625Z,54.90
2022-08-01T16:18:39.649Z,55.30
2022-08-01T16:21:07.853Z,55.30
2022-08-01T16:23:34.800Z,55.60
2022-08-01T16:26:01.990Z,55.70
2022-08-01T16:28:28.788Z,55.50
2022-08-01T16:31:11.028Z,55.70
2022-08-01T16:33:51.687Z,55.50
2022-08-01T16:36:21.201Z,55.50
2022-08-01T16:38:48.161Z,55.80
2022-08-01T16:41:19.714Z,55.80
2022-08-01T16:43:53.786Z,56.10
2022-08-01T16:46:22.357Z,56.10
2022-08-01T16:48:49.230Z,56.90
2022-08-01T16:51:16.278Z,56.10
2022-08-01T16:53:43.100Z,56.30
2022-08-01T16:56:09.889Z,56.80
2022-08-01T16:58:36.929Z,56.90
2022-08-01T17:01:58.060Z,57.10
2022-08-01T17:03:51.581Z,57.20
2022-08-01T17:06:20.710Z,57.10
2022-08-01T17:08:49.931Z,57.10
2022-08-01T17:11:16.990Z,57.30
2022-08-01T17:13:43.891Z,57.30
2022-08-01T17:16:11.530Z,57.20
2022-08-01T17:18:38.353Z,57.20
2022-08-01T17:21:05.247Z,57.40
2022-08-01T17:23:32.447Z,57.60
2022-08-01T17:25:59.792Z,57.50
2022-08-01T17:28:26.800Z,57.60
2022-08-01T17:30:53.857Z,57.80
2022-08-01T17:33:21.264Z,57.50
2022-08-01T17:35:48.112Z,57.70
2022-08-01T17:38:14.985Z,57.80
2022-08-01T17:40:41.994Z,58.40
2022-08-01T17:43:09.027Z,57.80
2022-08-01T17:45:39.328Z,57.90
2022-08-01T17:48:18.088Z,58.10
2022-08-01T17:50:46.264Z,58.40
2022-08-01T17:53:14.339Z,58.40
2022-08-01T17:55:54.484Z,58.40
2022-08-01T17:58:48.836Z,58.20
2022-08-01T18:01:16.155Z,58.20
2022-08-01T18:03:43.936Z,58.50
2022-08-01T18:06:13.828Z,58.60
2022-08-01T18:08:41.983Z,58.70
2022-08-01T18:11:09.450Z,58.80
2022-08-01T18:13:36.603Z,59.00
2022-08-01T18:16:09.262Z,59.10
2022-08-01T18:18:36.657Z,59.20
2022-08-01T18:21:04.227Z,59.20
2022-08-01T18:23:33.534Z,59.30
2022-08-01T18:26:02.352Z,59.40
2022-08-01T18:28:34.141Z,59.60
2022-08-01T18:31:03.876Z,59.80
2022-08-01T18:33:30.860Z,59.90
2022-08-01T18:36:01.909Z,60.00
2022-08-01T18:38:32.224Z,60.30
2022-08-01T18:41:00.843Z,60.50
2022-08-01T18:43:28.208Z,61.40
2022-08-01T18:45:57.307Z,60.60
2022-08-01T18:48:24.513Z,60.80
2022-08-01T18:50:52.327Z,60.90
2022-08-01T18:53:20.802Z,61.00
2022-08-01T18:55:47.562Z,61.10
2022-08-01T18:58:14.443Z,61.00
2022-08-01T19:00:42.235Z,61.20
2022-08-01T19:03:09.732Z,61.20
2022-08-01T19:05:37.412Z,61.30
2022-08-01T19:08:07.575Z,61.40
2022-08-01T19:10:36.277Z,61.40
2022-08-01T19:13:03.317Z,61.40
2022-08-01T19:15:30.280Z,61.80
2022-08-01T19:17:57.457Z,61.90
2022-08-01T19:20:24.367Z,61.90
2022-08-01T19:22:51.186Z,61.50
2022-08-01T19:25:18.115Z,61.40
2022-08-01T19:27:49.070Z,62.50
2022-08-01T19:30:17.548Z,61.70
2022-08-01T19:32:46.644Z,61.80
2022-08-01T19:35:17.015Z,61.60
2022-08-01T19:37:47.164Z,61.70
2022-08-01T19:40:27.288Z,61.80
2022-08-01T19:42:55.522Z,61.90
2022-08-01T19:45:22.895Z,61.90
2022-08-01T19:47:56.207Z,61.50
2022-08-01T19:50:28.448Z,61.20
2022-08-01T19:53:04.031Z,61.40
2022-08-01T19:55:35.170Z,61.70
2022-08-01T19:58:26.239Z,63.30
2022-08-01T20:00:55.091Z,64.20
2022-08-01T20:03:22.937Z,63.10
2022-08-01T20:05:51.289Z,62.80
2022-08-01T20:08:19.909Z,64.00
2022-08-01T20:10:48.651Z,62.00
2022-08-01T20:13:17.181Z,63.50
2022-08-01T20:15:45.119Z,65.90
2022-08-01T20:18:12.037Z,66.80
2022-08-01T20:20:39.094Z,67.90
2022-08-01T20:23:10.146Z,68.70
2022-08-01T20:25:39.788Z,70.00
2022-08-01T20:28:10.948Z,70.90
2022-08-01T20:30:42.079Z,72.30
2022-08-01T20:33:11.351Z,72.90
2022-08-01T20:35:51.884Z,73.50
2022-08-01T20:38:23.934Z,74.50
2022-08-01T20:40:55.091Z,75.60
2022-08-01T20:43:22.579Z,76.30
2022-08-01T20:45:51.374Z,76.50
2022-08-01T20:48:19.156Z,77.00
2022-08-01T20:51:05.145Z,77.00
2022-08-01T20:53:36.727Z,77.00
2022-08-01T20:56:23.103Z,77.30
2022-08-01T20:59:00.336Z,76.90
2022-08-01T21:01:29.429Z,76.70
2022-08-01T21:04:09.090Z,76.60
2022-08-01T21:06:45.089Z,77.00
2022-08-01T21:09:18.488Z,76.90
2022-08-01T21:12:15.581Z,77.50
2022-08-01T21:14:55.231Z,77.70
2022-08-01T21:17:36.003Z,77.70
2022-08-01T21:20:07.696Z,78.00
2022-08-01T21:23:00.677Z,78.60
2022-08-01T21:25:32.896Z,79.10
2022-08-01T21:28:01.393Z,78.80
2022-08-01T21:30:32.527Z,79.40
2022-08-01T21:33:00.219Z,79.20
2022-08-01T21:35:27.600Z,79.00
2022-08-01T21:37:57.259Z,79.70
2022-08-01T21:40:24.578Z,79.60
2022-08-01T21:42:53.380Z,80.00
2022-08-01T21:45:23.582Z,80.40
2022-08-01T21:47:51.334Z,81.00
2022-08-01T21:50:18.789Z,81.50
2022-08-01T21:52:46.790Z,82.60
2022-08-01T21:55:35.561Z,83.20
2022-08-01T21:58:33.478Z,83.80
2022-08-01T22:01:16.764Z,83.70
2022-08-01T22:03:48.825Z,83.60
2022-08-01T22:06:19.005Z,83.40
2022-08-01T22:08:51.351Z,83.10
2022-08-01T22:11:25.561Z,82.90
2022-08-01T22:13:55.239Z,83.10
2022-08-01T22:16:22.266Z,83.50
2022-08-01T22:18:49.460Z,83.70
2022-08-01T22:21:17.330Z,83.90
2022-08-01T22:23:44.564Z,84.10
2022-08-01T22:26:12.223Z,84.10
2022-08-01T22:28:40.431Z,84.30
2022-08-01T22:31:07.410Z,84.10
2022-08-01T22:33:39.152Z,84.20
2022-08-01T22:36:07.472Z,84.30
2022-08-01T22:38:34.729Z,84.40
2022-08-01T22:41:04.710Z,84.80
2022-08-01T22:43:52.546Z,84.60
2022-08-01T22:46:31.011Z,85.00
2022-08-01T22:49:21.555Z,85.20
2022-08-01T22:51:54.626Z,85.40
2022-08-01T22:54:28.866Z,85.60
2022-08-01T22:56:57.204Z,85.70
2022-08-01T22:59:48.029Z,85.60
2022-08-01T23:02:17.204Z,85.90
2022-08-01T23:04:47.482Z,85.80
2022-08-01T23:07:24.015Z,86.00
2022-08-01T23:09:55.495Z,86.40
2022-08-01T23:12:27.481Z,86.30
2022-08-01T23:14:59.180Z,86.20
2022-08-01T23:17:29.146Z,86.00
2022-08-01T23:20:05.850Z,85.90
2022-08-01T23:22:36.479Z,85.70
2022-08-01T23:25:06.829Z,85.60
2022-08-01T23:27:54.396Z,85.40
2022-08-01T23:30:31.403Z,85.40
2022-08-01T23:32:58.360Z,85.20
2022-08-01T23:35:25.924Z,85.50
2022-08-01T23:37:58.363Z,85.80
2022-08-01T23:40:29.013Z,86.30
2022-08-01T23:42:56.021Z,86.50
2022-08-01T23:45:23.421Z,86.50
2022-08-01T23:47:50.630Z,86.90
2022-08-01T23:50:17.395Z,87.10
2022-08-01T23:52:48.514Z,87.40
2022-08-01T23:55:17.064Z,87.30
2022-08-01T23:57:44.421Z,87.50
